Time;durP1;ratioP1;P1;durP2;ratioP2;P2;SDS_P1;SDS_P2;PMS_P1;PMS_P2;Temp;Humidity;BMP_temperature;BMP_pressure;BME280_temperature;BME280_humidity;BME280_pressure;Samples;Min_cycle;Max_cycle;Signal;HPM_P1;HPM_P2
2023/09/11 00:00:45;;;;;;;12.38;6.78;;;21.30;99.90;;;;;;5031112;28;20033;-55
2023/09/11 00:03:10;;;;;;;12.38;6.80;;;21.20;99.90;;;;;;5031106;28;20068;-54
2023/09/11 00:05:36;;;;;;;14.13;7.57;;;21.20;99.90;;;;;;5030996;28;20061;-54
2023/09/11 00:08:02;;;;;;;11.00;6.88;;;21.10;99.90;;;;;;5030934;28;20465;-52
2023/09/11 00:10:28;;;;;;;10.35;6.80;;;21.10;99.90;;;;;;5033211;28;20030;-56
2023/09/11 00:12:53;;;;;;;11.75;7.13;;;21.20;99.90;;;;;;5035108;28;20029;-55
2023/09/11 00:15:19;;;;;;;11.10;7.30;;;21.20;99.90;;;;;;5034930;28;20033;-55
2023/09/11 00:17:44;;;;;;;13.15;6.90;;;21.30;99.90;;;;;;5034589;28;20076;-56
2023/09/11 00:20:11;;;;;;;13.27;7.50;;;21.30;99.90;;;;;;5034622;28;20238;-56
2023/09/11 00:22:37;;;;;;;10.77;7.10;;;21.40;99.90;;;;;;5034557;28;20163;-56
2023/09/11 00:25:03;;;;;;;10.18;7.28;;;21.40;99.90;;;;;;5034598;28;20025;-53
2023/09/11 00:27:28;;;;;;;14.65;8.30;;;21.30;99.90;;;;;;5034260;28;20120;-56
2023/09/11 00:29:55;;;;;;;13.07;6.90;;;21.20;99.90;;;;;;5016492;28;20031;-56
2023/09/11 00:32:20;;;;;;;11.18;7.00;;;21.20;99.90;;;;;;5016683;28;20116;-54
2023/09/11 00:34:46;;;;;;;12.68;6.93;;;21.20;99.90;;;;;;5034988;28;20113;-56
2023/09/11 00:37:11;;;;;;;14.43;6.93;;;21.20;99.90;;;;;;5034425;28;20098;-55
2023/09/11 00:39:37;;;;;;;11.75;6.70;;;21.10;99.90;;;;;;5016112;28;20029;-55
2023/09/11 00:42:03;;;;;;;11.65;6.63;;;21.10;99.90;;;;;;5016690;28;20038;-56
2023/09/11 00:44:29;;;;;;;12.18;7.60;;;21.00;99.90;;;;;;5034386;28;20083;-57
2023/09/11 00:46:55;;;;;;;14.38;7.35;;;21.00;99.90;;;;;;5034134;28;20474;-55
2023/09/11 00:49:23;;;;;;;13.02;6.82;;;21.10;99.90;;;;;;5015563;28;20036;-58
2023/09/11 00:51:50;;;;;;;12.93;6.95;;;21.00;99.90;;;;;;5016259;28;20025;-57
2023/09/11 00:54:20;;;;;;;11.50;6.85;;;21.00;99.90;;;;;;5016120;28;20562;-56
2023/09/11 00:56:47;;;;;;;12.35;6.93;;;20.90;99.90;;;;;;5016205;28;20037;-54
2023/09/11 00:59:14;;;;;;;10.45;6.72;;;20.80;99.90;;;;;;5015650;28;20034;-55
2023/09/11 01:01:45;;;;;;;14.35;7.15;;;20.80;99.90;;;;;;5015914;28;20128;-54
2023/09/11 01:04:11;;;;;;;12.68;7.72;;;20.80;99.90;;;;;;5016034;28;20036;-56
2023/09/11 01:06:37;;;;;;;13.77;7.07;;;20.80;99.90;;;;;;5033848;28;20381;-56
2023/09/11 01:09:03;;;;;;;12.30;6.32;;;20.80;99.90;;;;;;5033306;28;20025;-54
2023/09/11 01:11:29;;;;;;;14.07;7.35;;;20.80;99.90;;;;;;5015894;28;20473;-55
2023/09/11 01:13:57;;;;;;;11.25;6.28;;;20.80;99.90;;;;;;5015930;28;20025;-56
2023/09/11 01:16:36;;;;;;;11.68;7.05;;;20.80;99.90;;;;;;5015763;28;20482;-54
2023/09/11 01:19:12;;;;;;;;;;;20.80;99.90;;;;;;5033965;28;20037;-55
2023/09/11 01:22:07;;;;;;;13.70;7.35;;;20.70;99.90;;;;;;5032432;28;19960;-57
2023/09/11 01:25:02;;;;;;;9.57;6.43;;;20.60;99.90;;;;;;4994632;28;20095;-54
2023/09/11 01:27:40;;;;;;;9.48;5.93;;;20.60;99.90;;;;;;5015314;28;20071;-56
2023/09/11 01:30:07;;;;;;;13.18;7.10;;;20.60;99.90;;;;;;5033321;28;20429;-56
2023/09/11 01:32:35;;;;;;;16.85;7.43;;;20.60;99.90;;;;;;5015723;28;20060;-56
2023/09/11 01:35:01;;;;;;;11.02;6.10;;;20.60;99.90;;;;;;5033161;28;20031;-57
2023/09/11 01:37:27;;;;;;;12.82;6.35;;;20.70;99.90;;;;;;5033293;28;20034;-57
2023/09/11 01:39:53;;;;;;;12.85;6.07;;;20.60;99.90;;;;;;5015149;28;20075;-55
2023/09/11 01:42:31;;;;;;;12.65;6.97;;;20.70;99.90;;;;;;5015342;28;20033;-56
2023/09/11 01:44:59;;;;;;;9.95;6.43;;;20.70;99.90;;;;;;5015324;28;20409;-56
2023/09/11 01:47:26;;;;;;;10.93;6.18;;;20.80;99.90;;;;;;5015074;28;20025;-54
2023/09/11 01:49:53;;;;;;;11.77;6.40;;;20.80;99.90;;;;;;5032806;28;20456;-57
2023/09/11 01:52:20;;;;;;;10.70;6.93;;;20.80;99.90;;;;;;4999030;28;20030;-53
2023/09/11 01:54:48;;;;;;;11.93;6.22;;;20.80;99.90;;;;;;5032942;28;20651;-56
2023/09/11 01:57:13;;;;;;;13.23;6.45;;;20.80;99.90;;;;;;5014176;28;20091;-53
2023/09/11 01:59:39;;;;;;;10.95;6.13;;;20.80;99.90;;;;;;5013962;28;20041;-53
2023/09/11 02:02:06;;;;;;;13.60;6.55;;;20.80;99.90;;;;;;5014826;28;20140;-54
2023/09/11 02:04:31;;;;;;;10.82;5.80;;;20.80;99.90;;;;;;5014675;28;20080;-53
2023/09/11 02:06:57;;;;;;;10.55;5.60;;;20.90;99.90;;;;;;5014901;28;20064;-55
2023/09/11 02:09:23;;;;;;;12.88;6.30;;;20.90;99.90;;;;;;5014401;28;20131;-54
2023/09/11 02:11:48;;;;;;;10.65;6.55;;;20.90;99.90;;;;;;4998598;28;20026;-51
2023/09/11 02:14:14;;;;;;;13.05;6.20;;;20.90;99.90;;;;;;5014809;28;20070;-55
2023/09/11 02:16:39;;;;;;;10.45;6.13;;;21.00;99.90;;;;;;5014658;28;20050;-56
2023/09/11 02:19:05;;;;;;;10.85;6.05;;;20.90;99.90;;;;;;5032156;28;20059;-52
2023/09/11 02:21:31;;;;;;;13.25;6.40;;;20.80;99.90;;;;;;5014813;28;20523;-52
2023/09/11 02:23:56;;;;;;;12.10;6.57;;;20.70;99.90;;;;;;5032551;28;20029;-51
2023/09/11 02:26:22;;;;;;;11.38;6.50;;;20.60;99.90;;;;;;5014768;28;20481;-55
2023/09/11 02:28:47;;;;;;;12.60;6.80;;;20.60;99.90;;;;;;5013981;28;20065;-56
2023/09/11 02:31:14;;;;;;;13.90;6.38;;;20.50;99.90;;;;;;5014424;28;20037;-52
2023/09/11 02:33:39;;;;;;;10.65;6.60;;;20.50;99.90;;;;;;5032027;28;20129;-51
2023/09/11 02:36:05;;;;;;;12.20;7.50;;;20.50;99.90;;;;;;5032191;28;20105;-56
2023/09/11 02:38:31;;;;;;;13.63;6.38;;;20.50;99.90;;;;;;5031655;28;20474;-56
2023/09/11 02:40:57;;;;;;;14.30;6.38;;;20.50;99.90;;;;;;5013897;28;20068;-55
2023/09/11 02:43:23;;;;;;;13.75;5.88;;;20.40;99.90;;;;;;5031852;28;20053;-57
2023/09/11 02:45:48;;;;;;;16.45;6.45;;;20.40;99.90;;;;;;5013754;28;20434;-56
2023/09/11 02:48:14;;;;;;;12.88;6.88;;;20.30;99.90;;;;;;5013759;28;20087;-56
2023/09/11 02:50:39;;;;;;;14.45;7.35;;;20.20;99.90;;;;;;5013895;28;20030;-56
2023/09/11 02:53:09;;;;;;;9.13;6.20;;;20.20;99.90;;;;;;5014080;28;20040;-54
2023/09/11 02:55:39;;;;;;;12.40;5.85;;;20.10;99.90;;;;;;5013946;28;20370;-56
2023/09/11 02:58:05;;;;;;;11.23;6.38;;;20.10;99.90;;;;;;5013679;28;20026;-53
2023/09/11 03:00:34;;;;;;;11.20;5.68;;;20.10;99.90;;;;;;5031495;28;20033;-55
2023/09/11 03:03:01;;;;;;;11.77;6.32;;;20.10;99.90;;;;;;5031699;28;20363;-57
2023/09/11 03:05:27;;;;;;;11.00;6.22;;;20.10;99.90;;;;;;5013786;28;20037;-55
2023/09/11 03:07:53;;;;;;;9.75;6.05;;;20.10;99.90;;;;;;5013451;28;20040;-55
2023/09/11 03:10:18;;;;;;;12.25;5.72;;;20.10;99.90;;;;;;5031372;28;20018;-56
2023/09/11 03:12:44;;;;;;;10.77;5.75;;;20.10;99.90;;;;;;5013566;28;20112;-56
2023/09/11 03:15:10;;;;;;;9.55;4.97;;;20.30;99.90;;;;;;5013614;28;20092;-56
2023/09/11 03:17:36;;;;;;;11.90;5.25;;;20.30;99.90;;;;;;5013293;28;20030;-56
2023/09/11 03:20:02;;;;;;;13.32;6.97;;;20.40;99.90;;;;;;5013070;28;20044;-56
2023/09/11 03:22:28;;;;;;;11.32;5.80;;;20.50;99.90;;;;;;5012964;28;20482;-55
2023/09/11 03:24:54;;;;;;;11.57;6.10;;;20.50;99.90;;;;;;5013016;28;20527;-51
2023/09/11 03:27:20;;;;;;;12.15;5.13;;;20.50;99.90;;;;;;5012854;28;20037;-56
2023/09/11 03:29:51;;;;;;;9.25;5.72;;;20.50;99.90;;;;;;5012535;28;20444;-57
2023/09/11 03:32:16;;;;;;;11.35;5.88;;;20.50;99.90;;;;;;5013139;28;20029;-55
2023/09/11 03:34:42;;;;;;;13.73;5.97;;;20.50;99.90;;;;;;5012884;28;20022;-56
2023/09/11 03:37:07;;;;;;;16.02;6.57;;;20.40;99.90;;;;;;5012819;28;20030;-54
2023/09/11 03:39:33;;;;;;;11.45;5.97;;;20.40;99.90;;;;;;5012355;28;20029;-55
2023/09/11 03:41:59;;;;;;;11.95;6.25;;;20.50;99.90;;;;;;5012724;28;20397;-54
2023/09/11 03:44:25;;;;;;;11.45;5.82;;;20.50;99.90;;;;;;5012236;28;20030;-56
2023/09/11 03:46:51;;;;;;;12.32;5.82;;;20.50;99.90;;;;;;5012687;28;20025;-56
2023/09/11 03:49:16;;;;;;;11.25;5.85;;;20.40;99.90;;;;;;4996002;28;20075;-55
2023/09/11 03:51:43;;;;;;;10.35;5.35;;;20.30;99.90;;;;;;5012690;28;20099;-53
2023/09/11 03:54:09;;;;;;;11.82;5.93;;;20.20;99.90;;;;;;5012748;28;20478;-56
2023/09/11 03:56:35;;;;;;;12.70;5.60;;;20.20;99.90;;;;;;5012972;28;20398;-56
2023/09/11 03:59:00;;;;;;;14.02;6.10;;;20.20;99.90;;;;;;5012168;28;20034;-56
2023/09/11 04:01:26;;;;;;;11.10;5.60;;;20.20;99.90;;;;;;5012675;28;20051;-55
2023/09/11 04:03:52;;;;;;;11.45;5.72;;;20.30;99.90;;;;;;5030264;28;20022;-56
2023/09/11 04:06:19;;;;;;;11.77;5.38;;;20.40;99.90;;;;;;5012621;28;20429;-55
2023/09/11 04:08:45;;;;;;;10.23;5.65;;;20.40;99.90;;;;;;5011977;28;20184;-55
2023/09/11 04:11:10;;;;;;;10.07;5.22;;;20.40;99.90;;;;;;5012465;28;20124;-57
2023/09/11 04:13:36;;;;;;;11.57;5.55;;;20.30;99.90;;;;;;5012465;28;20025;-54
2023/09/11 04:16:02;;;;;;;10.65;5.55;;;20.30;99.90;;;;;;5012554;28;20549;-56
2023/09/11 04:18:27;;;;;;;12.50;6.20;;;20.30;99.90;;;;;;5029764;28;20088;-57
2023/09/11 04:21:01;;;;;;;11.10;5.72;;;20.30;99.90;;;;;;5012439;28;20116;-55
2023/09/11 04:23:26;;;;;;;17.30;5.93;;;20.30;99.90;;;;;;5012529;28;20033;-56
2023/09/11 04:25:54;;;;;;;9.38;5.35;;;20.30;99.90;;;;;;5012212;28;20175;-55
2023/09/11 04:28:19;;;;;;;13.15;6.05;;;20.30;99.90;;;;;;5012182;28;20482;-55
2023/09/11 04:30:45;;;;;;;10.43;5.40;;;20.30;99.90;;;;;;5012243;28;20025;-53
2023/09/11 04:33:10;;;;;;;7.43;5.40;;;20.20;99.90;;;;;;5030257;28;20068;-54
2023/09/11 04:35:36;;;;;;;11.43;6.53;;;20.30;99.90;;;;;;5030176;28;20026;-53
2023/09/11 04:38:02;;;;;;;14.45;5.78;;;20.30;99.90;;;;;;5012004;28;20035;-55
2023/09/11 04:40:28;;;;;;;12.10;5.40;;;20.30;99.90;;;;;;5029680;28;20026;-56
2023/09/11 04:42:55;;;;;;;14.15;6.57;;;20.10;99.90;;;;;;5012356;28;20036;-53
2023/09/11 04:45:20;;;;;;;10.75;6.32;;;20.10;99.90;;;;;;4995879;28;20041;-53
2023/09/11 04:47:46;;;;;;;12.13;6.65;;;20.20;99.90;;;;;;5011960;28;20034;-53
2023/09/11 04:50:12;;;;;;;11.57;5.82;;;20.10;99.90;;;;;;5012100;28;20030;-55
2023/09/11 04:52:37;;;;;;;16.80;8.45;;;20.00;99.90;;;;;;5012444;28;20454;-56
2023/09/11 04:55:03;;;;;;;11.15;6.30;;;20.00;99.90;;;;;;5029431;28;20379;-59
2023/09/11 04:57:29;;;;;;;10.65;6.22;;;20.10;99.90;;;;;;5032738;28;20041;-58
2023/09/11 04:59:54;;;;;;;11.48;7.10;;;20.00;99.90;;;;;;5015000;28;20085;-59
2023/09/11 05:02:20;;;;;;;13.55;6.47;;;20.10;99.90;;;;;;5015342;28;20497;-55
2023/09/11 05:04:47;;;;;;;9.63;5.50;;;20.10;99.90;;;;;;5015251;28;20103;-58
2023/09/11 05:07:13;;;;;;;11.27;5.50;;;20.10;99.90;;;;;;5015259;28;20030;-56
2023/09/11 05:09:39;;;;;;;14.75;6.95;;;20.10;99.90;;;;;;5014567;28;20420;-57
2023/09/11 05:12:05;;;;;;;11.02;6.43;;;20.10;99.90;;;;;;5015159;28;20030;-57
2023/09/11 05:14:31;;;;;;;10.40;6.03;;;20.10;99.90;;;;;;5032274;28;20025;-58
2023/09/11 05:16:56;;;;;;;11.77;6.40;;;20.00;99.90;;;;;;5014890;28;20053;-56
2023/09/11 05:19:23;;;;;;;11.10;5.45;;;20.10;99.90;;;;;;5013958;28;20049;-58
2023/09/11 05:21:48;;;;;;;11.48;5.43;;;20.10;99.90;;;;;;5014316;28;20035;-56
2023/09/11 05:24:14;;;;;;;16.00;8.05;;;20.10;99.90;;;;;;5032085;28;20485;-56
2023/09/11 05:26:39;;;;;;;16.02;7.10;;;20.00;99.90;;;;;;5032669;28;20116;-57
2023/09/11 05:29:05;;;;;;;10.52;5.88;;;20.00;99.90;;;;;;5014838;28;20029;-56
2023/09/11 05:31:31;;;;;;;11.85;5.18;;;20.00;99.90;;;;;;5032949;28;20113;-58
2023/09/11 05:33:56;;;;;;;15.38;5.80;;;20.10;99.90;;;;;;5033209;28;20033;-54
2023/09/11 05:36:22;;;;;;;14.15;5.75;;;20.10;99.90;;;;;;5033033;28;20029;-54
2023/09/11 05:38:48;;;;;;;17.63;7.25;;;20.20;99.90;;;;;;5032625;28;20037;-57
2023/09/11 05:41:14;;;;;;;18.23;7.88;;;20.20;99.90;;;;;;5033043;28;20474;-55
2023/09/11 05:43:40;;;;;;;12.77;7.20;;;20.30;99.90;;;;;;5033227;28;20037;-55
2023/09/11 05:46:07;;;;;;;13.48;5.72;;;20.20;99.90;;;;;;5032692;28;20327;-58
2023/09/11 05:48:32;;;;;;;14.38;7.55;;;20.30;99.90;;;;;;5032528;28;20056;-56
2023/09/11 05:50:58;;;;;;;9.48;5.45;;;20.40;99.90;;;;;;5032802;28;20453;-57
2023/09/11 05:53:24;;;;;;;12.35;5.25;;;20.30;99.90;;;;;;5032704;28;20085;-57
2023/09/11 05:55:49;;;;;;;10.23;5.25;;;20.30;99.90;;;;;;5032672;28;20032;-57
2023/09/11 05:58:15;;;;;;;13.02;5.15;;;20.40;99.90;;;;;;5032430;28;20163;-58
2023/09/11 06:00:42;;;;;;;10.65;5.68;;;20.50;99.90;;;;;;5014628;28;20378;-58
2023/09/11 06:03:07;;;;;;;10.40;5.50;;;20.50;99.90;;;;;;5032605;28;20037;-55
2023/09/11 06:05:36;;;;;;;9.60;5.40;;;20.60;99.90;;;;;;5032926;28;20029;-56
2023/09/11 06:08:03;;;;;;;;;;;20.60;99.90;;;;;;5032411;28;20116;-56
2023/09/11 06:10:29;;;;;;;10.43;4.90;;;20.70;99.90;;;;;;5032716;28;19963;-56
2023/09/11 06:12:55;;;;;;;11.63;6.20;;;20.70;99.90;;;;;;5032864;28;20033;-56
2023/09/11 06:15:20;;;;;;;10.93;5.22;;;20.70;99.90;;;;;;5032675;28;20098;-55
2023/09/11 06:17:46;;;;;;;9.48;5.20;;;20.70;99.90;;;;;;5032464;28;20057;-54
2023/09/11 06:20:13;;;;;;;10.35;4.80;;;20.80;99.90;;;;;;5032680;28;20029;-56
2023/09/11 06:22:39;;;;;;;11.30;5.15;;;20.90;99.90;;;;;;5032419;28;20128;-55
2023/09/11 06:25:05;;;;;;;10.38;4.88;;;20.90;99.90;;;;;;5031722;28;20065;-56
2023/09/11 06:27:31;;;;;;;8.70;4.35;;;21.00;99.90;;;;;;5031478;28;20040;-57
2023/09/11 06:29:57;;;;;;;10.75;4.82;;;21.10;99.90;;;;;;5030122;28;20111;-55
2023/09/11 06:32:23;;;;;;;9.48;4.68;;;21.20;99.90;;;;;;5031808;28;20385;-52
2023/09/11 06:34:48;;;;;;;11.13;4.65;;;21.20;99.90;;;;;;5031363;28;20140;-51
2023/09/11 06:37:14;;;;;;;15.80;6.13;;;21.40;99.90;;;;;;5031211;28;20033;-51
2023/09/11 06:39:40;;;;;;;11.23;5.78;;;21.50;99.90;;;;;;5030864;28;20029;-52
2023/09/11 06:42:05;;;;;;;8.65;4.60;;;21.50;99.90;;;;;;5030535;28;20308;-57
2023/09/11 06:44:31;;;;;;;9.52;4.43;;;21.60;99.90;;;;;;5031242;28;20037;-55
2023/09/11 06:46:57;;;;;;;10.13;4.53;;;21.70;99.90;;;;;;5030911;28;20421;-57
2023/09/11 06:49:23;;;;;;;8.52;4.35;;;21.80;99.90;;;;;;5030571;28;20578;-55
2023/09/11 06:51:48;;;;;;;10.70;4.93;;;21.90;99.90;;;;;;5030799;28;20398;-55
2023/09/11 06:54:14;;;;;;;12.35;4.88;;;22.00;99.90;;;;;;5013109;28;20065;-54
2023/09/11 06:56:40;;;;;;;12.20;6.40;;;22.10;99.90;;;;;;5031278;28;20474;-55
2023/09/11 06:59:06;;;;;;;11.90;5.22;;;22.20;99.90;;;;;;5030166;28;20033;-54
2023/09/11 07:01:38;;;;;;;7.47;4.57;;;22.30;99.90;;;;;;5030749;28;20021;-55
2023/09/11 07:04:05;;;;;;;12.52;4.47;;;22.40;99.90;;;;;;5013070;28;20033;-51
2023/09/11 07:06:31;;;;;;;17.80;7.28;;;22.50;99.90;;;;;;5030651;28;20140;-56
2023/09/11 07:08:56;;;;;;;7.60;4.93;;;22.60;99.90;;;;;;5030071;28;20030;-57
2023/09/11 07:11:22;;;;;;;13.02;6.57;;;22.70;99.90;;;;;;5030723;28;20026;-52
2023/09/11 07:13:48;;;;;;;8.63;4.20;;;22.80;99.90;;;;;;5030576;28;20466;-56
2023/09/11 07:16:13;;;;;;;10.13;4.35;;;22.90;99.90;;;;;;5030419;28;20040;-56
2023/09/11 07:18:39;;;;;;;7.45;3.78;;;23.00;99.90;;;;;;5029292;28;20536;-56
2023/09/11 07:21:05;;;;;;;7.40;3.67;;;23.00;99.90;;;;;;5029920;28;20065;-54
2023/09/11 07:23:30;;;;;;;14.32;4.63;;;23.10;99.90;;;;;;5030219;28;20481;-54
2023/09/11 07:25:56;;;;;;;10.73;4.78;;;23.20;99.90;;;;;;5012506;28;20037;-54
2023/09/11 07:28:24;;;;;;;12.55;5.90;;;23.30;99.90;;;;;;5028982;28;20030;-50
2023/09/11 07:30:50;;;;;;;12.50;3.88;;;23.40;99.90;;;;;;5030183;28;20516;-55
2023/09/11 07:33:16;;;;;;;11.05;3.80;;;23.50;99.90;;;;;;5030119;28;20112;-52
2023/09/11 07:35:41;;;;;;;9.23;4.28;;;23.60;99.90;;;;;;5030511;28;20086;-55
2023/09/11 07:38:07;;;;;;;10.13;3.92;;;23.70;99.90;;;;;;5030138;28;20116;-55
2023/09/11 07:40:32;;;;;;;13.55;4.70;;;23.70;99.90;;;;;;5030614;28;20133;-54
2023/09/11 07:42:58;;;;;;;11.18;5.13;;;23.80;99.90;;;;;;5030478;28;20457;-55
2023/09/11 07:45:24;;;;;;;6.55;3.90;;;23.90;99.90;;;;;;5030285;28;20037;-56
2023/09/11 07:47:50;;;;;;;12.80;5.40;;;24.00;99.90;;;;;;5030630;28;20029;-58
2023/09/11 07:50:16;;;;;;;10.70;3.88;;;24.00;99.90;;;;;;5030343;28;20029;-55
2023/09/11 07:52:42;;;;;;;7.97;4.20;;;24.00;99.90;;;;;;5030852;28;20478;-54
2023/09/11 07:55:08;;;;;;;11.80;5.03;;;24.10;99.90;;;;;;5030714;28;20040;-56
2023/09/11 07:57:33;;;;;;;9.35;4.07;;;24.10;99.90;;;;;;5030581;28;20029;-58
2023/09/11 08:00:04;;;;;;;13.07;4.72;;;24.20;99.90;;;;;;5030551;28;20105;-57
2023/09/11 08:02:30;;;;;;;12.60;4.45;;;24.30;99.90;;;;;;5030861;28;20048;-58
2023/09/11 08:04:56;;;;;;;13.32;4.45;;;24.40;99.90;;;;;;5030859;28;20025;-58
2023/09/11 08:07:22;;;;;;;11.77;5.20;;;24.50;99.90;;;;;;5030645;28;20064;-58
2023/09/11 08:09:48;;;;;;;9.88;4.38;;;24.50;99.90;;;;;;5030510;28;20100;-56
2023/09/11 08:12:15;;;;;;;8.00;4.03;;;24.70;99.90;;;;;;5030782;28;20517;-54
2023/09/11 08:14:40;;;;;;;8.43;3.78;;;24.70;99.90;;;;;;5030684;28;20091;-54
2023/09/11 08:17:06;;;;;;;8.85;4.10;;;24.70;99.90;;;;;;5029601;28;20029;-58
2023/09/11 08:19:32;;;;;;;11.40;4.15;;;24.80;99.90;;;;;;5029855;28;20095;-57
2023/09/11 08:21:57;;;;;;;9.93;4.22;;;25.00;99.90;;;;;;5030502;28;20025;-57
2023/09/11 08:24:23;;;;;;;6.63;3.33;;;25.00;99.90;;;;;;5030646;28;20037;-58
2023/09/11 08:26:49;;;;;;;8.32;4.05;;;25.20;99.90;;;;;;5030501;28;20115;-54
2023/09/11 08:29:15;;;;;;;14.25;4.85;;;25.20;99.90;;;;;;5030108;28;20034;-54
2023/09/11 08:31:41;;;;;;;9.98;3.42;;;25.40;99.90;;;;;;5032972;28;20033;-55
2023/09/11 08:34:08;;;;;;;6.75;3.67;;;25.40;99.90;;;;;;5034198;28;20494;-55
2023/09/11 08:36:33;;;;;;;8.30;3.80;;;25.40;99.90;;;;;;5032445;28;20099;-53
2023/09/11 08:38:59;;;;;;;7.47;3.65;;;25.50;99.90;;;;;;5031467;28;20037;-57
2023/09/11 08:41:26;;;;;;;7.85;4.03;;;25.50;99.90;;;;;;5033947;28;20018;-54
2023/09/11 08:43:52;;;;;;;8.60;3.97;;;25.60;99.90;;;;;;5033473;28;20040;-56
2023/09/11 08:46:18;;;;;;;9.90;4.53;;;25.60;99.90;;;;;;5033090;28;20026;-58
2023/09/11 08:48:46;;;;;;;9.60;4.07;;;25.70;99.90;;;;;;5032850;28;20478;-53
2023/09/11 08:51:20;;;;;;;9.13;4.07;;;25.90;99.90;;;;;;5033419;28;20044;-57
2023/09/11 08:53:50;;;;;;;10.63;3.97;;;26.00;99.90;;;;;;5033249;28;20048;-56
2023/09/11 08:56:16;;;;;;;8.52;4.10;;;26.10;99.90;;;;;;5033184;28;20119;-57
2023/09/11 08:58:42;;;;;;;9.88;3.85;;;26.20;99.90;;;;;;5032485;28;20117;-57
2023/09/11 09:01:08;;;;;;;13.02;4.78;;;26.40;99.90;;;;;;5031815;28;20459;-56
2023/09/11 09:03:34;;;;;;;8.27;4.57;;;26.50;99.90;;;;;;5015307;28;20106;-56
2023/09/11 09:06:02;;;;;;;8.82;4.60;;;26.50;99.90;;;;;;5032858;28;20042;-57
2023/09/11 09:08:28;;;;;;;8.37;3.70;;;26.60;99.90;;;;;;5033262;28;20036;-57
2023/09/11 09:10:54;;;;;;;7.60;3.60;;;26.60;99.90;;;;;;5033808;28;20108;-57
2023/09/11 09:13:19;;;;;;;12.20;4.32;;;26.50;99.90;;;;;;5033840;28;20030;-56
2023/09/11 09:15:45;;;;;;;8.13;4.07;;;26.50;99.90;;;;;;5033846;28;20037;-58
2023/09/11 09:18:11;;;;;;;9.25;3.85;;;26.70;99.90;;;;;;5033617;28;20144;-56
2023/09/11 09:20:40;;;;;;;8.32;4.82;;;26.80;99.90;;;;;;5033588;28;20128;-58
2023/09/11 09:23:06;;;;;;;14.05;4.68;;;26.90;99.90;;;;;;5033625;28;20540;-56
2023/09/11 09:25:32;;;;;;;6.97;3.70;;;27.00;99.90;;;;;;5032957;28;20061;-56
2023/09/11 09:27:58;;;;;;;7.10;4.47;;;27.00;99.90;;;;;;5032267;28;20060;-56
2023/09/11 09:30:26;;;;;;;7.95;3.80;;;27.10;99.90;;;;;;5014594;28;20433;-57
2023/09/11 09:32:52;;;;;;;11.32;3.53;;;27.20;99.90;;;;;;5032907;28;20029;-56
2023/09/11 09:35:30;;;;;;;8.30;3.90;;;27.20;99.90;;;;;;5033077;28;20117;-58
2023/09/11 09:37:57;;;;;;;12.93;4.85;;;27.30;99.90;;;;;;5033005;28;20033;-58
2023/09/11 09:40:37;;;;;;;6.85;4.05;;;27.60;99.90;;;;;;5032339;28;20049;-58
2023/09/11 09:43:10;;;;;;;8.15;4.28;;;27.70;99.90;;;;;;5031797;28;20068;-58
2023/09/11 09:45:40;;;;;;;6.93;3.35;;;27.80;99.90;;;;;;5032913;28;20030;-56
2023/09/11 09:48:16;;;;;;;10.43;3.67;;;27.80;99.90;;;;;;5032444;28;20112;-56
2023/09/11 09:50:59;;;;;;;7.85;4.07;;;27.90;99.90;;;;;;5032662;28;20385;-57
2023/09/11 09:53:33;;;;;;;11.30;5.05;;;28.00;99.90;;;;;;5032562;28;20053;-57
2023/09/11 09:56:10;;;;;;;6.35;3.58;;;28.10;99.90;;;;;;5032457;28;20041;-58
2023/09/11 09:58:41;;;;;;;6.93;3.95;;;28.20;99.00;;;;;;5032233;28;20083;-56
2023/09/11 10:01:07;;;;;;;7.28;4.00;;;28.30;99.70;;;;;;5032264;28;20029;-58
2023/09/11 10:03:44;;;;;;;9.55;3.95;;;28.50;99.70;;;;;;5032317;28;20021;-58
2023/09/11 10:06:14;;;;;;;10.98;3.55;;;28.70;98.90;;;;;;5032262;28;21983;-56
2023/09/11 10:08:40;;;;;;;7.15;4.05;;;28.80;98.00;;;;;;5013810;28;20029;-56
2023/09/11 10:11:06;;;;;;;9.80;4.78;;;28.70;99.20;;;;;;5032164;28;20028;-57
2023/09/11 10:13:34;;;;;;;7.25;3.22;;;28.90;98.70;;;;;;5032126;28;20033;-58
2023/09/11 10:16:01;;;;;;;8.00;4.18;;;29.00;98.10;;;;;;5032033;28;20057;-58
2023/09/11 10:18:31;;;;;;;9.00;4.53;;;29.30;98.00;;;;;;5031481;28;20029;-58
2023/09/11 10:20:58;;;;;;;8.35;4.05;;;29.60;98.30;;;;;;5031966;28;20029;-57
2023/09/11 10:23:24;;;;;;;5.80;3.38;;;29.70;97.40;;;;;;5031677;28;20044;-58
2023/09/11 10:25:56;;;;;;;13.65;4.80;;;29.70;97.80;;;;;;5031757;28;20025;-57
2023/09/11 10:28:37;;;;;;;8.27;4.05;;;29.90;97.80;;;;;;5031407;28;20080;-58
2023/09/11 10:31:12;;;;;;;7.57;4.30;;;30.10;97.00;;;;;;5031900;28;20497;-55
2023/09/11 10:33:39;;;;;;;8.68;4.20;;;30.50;96.70;;;;;;5031656;28;20051;-58
2023/09/11 10:36:11;;;;;;;11.60;4.53;;;30.90;95.70;;;;;;5031717;28;20488;-58
2023/09/11 10:38:37;;;;;;;11.65;4.45;;;31.20;95.70;;;;;;5013234;28;20029;-56
2023/09/11 10:41:04;;;;;;;11.27;4.47;;;31.30;95.60;;;;;;5031602;28;20045;-55
2023/09/11 10:43:30;;;;;;;9.02;4.95;;;31.40;95.50;;;;;;5031536;28;20474;-58
2023/09/11 10:45:56;;;;;;;8.80;4.70;;;31.40;95.40;;;;;;5031334;28;20117;-58
2023/09/11 10:48:30;;;;;;;9.60;4.35;;;31.50;95.90;;;;;;5031083;28;20120;-55
2023/09/11 10:50:58;;;;;;;11.00;5.07;;;31.60;95.80;;;;;;5013660;28;20030;-58
2023/09/11 10:53:30;;;;;;;12.55;5.68;;;31.60;95.20;;;;;;5031039;28;20087;-58
2023/09/11 10:56:00;;;;;;;9.15;4.20;;;31.40;95.10;;;;;;5031787;28;20018;-58
2023/09/11 10:58:28;;;;;;;18.48;6.43;;;31.00;95.80;;;;;;5030857;28;20450;-56
2023/09/11 11:00:54;;;;;;;9.90;6.00;;;30.70;95.90;;;;;;5031162;28;20470;-57
2023/09/11 11:03:24;;;;;;;12.98;5.43;;;30.50;96.90;;;;;;5031434;28;20385;-53
2023/09/11 11:05:51;;;;;;;12.93;5.97;;;30.50;96.80;;;;;;5030971;28;20040;-56
2023/09/11 11:08:17;;;;;;;16.02;7.57;;;30.50;96.70;;;;;;5030751;28;20084;-57
2023/09/11 11:10:50;;;;;;;10.00;5.13;;;30.40;97.00;;;;;;5030827;28;20079;-57
2023/09/11 11:13:16;;;;;;;9.70;4.25;;;30.30;96.20;;;;;;5031236;28;20018;-54
2023/09/11 11:15:42;;;;;;;9.30;4.75;;;30.10;96.30;;;;;;5031077;28;20025;-58
2023/09/11 11:18:23;;;;;;;8.52;4.13;;;30.00;97.10;;;;;;5031240;28;20496;-57
2023/09/11 11:21:04;;;;;;;11.32;4.20;;;30.00;97.20;;;;;;5030824;28;20086;-58
2023/09/11 11:23:36;;;;;;;9.63;4.30;;;30.00;97.30;;;;;;5030795;28;20041;-54
2023/09/11 11:26:06;;;;;;;8.73;4.72;;;30.00;96.90;;;;;;5030775;28;20040;-58
2023/09/11 11:28:40;;;;;;;10.50;4.65;;;30.00;96.70;;;;;;5030258;28;20490;-56
2023/09/11 11:31:08;;;;;;;9.90;4.75;;;29.90;96.90;;;;;;5030690;28;20113;-54
2023/09/11 11:33:37;;;;;;;6.85;4.07;;;29.90;97.30;;;;;;5030655;28;20029;-57
2023/09/11 11:36:05;;;;;;;8.25;4.57;;;29.90;97.90;;;;;;5034042;28;20025;-51
2023/09/11 11:38:31;;;;;;;11.13;4.45;;;30.00;97.30;;;;;;5049302;28;20033;-58
2023/09/11 11:40:58;;;;;;;8.50;4.65;;;30.00;98.20;;;;;;5050095;28;20537;-56
2023/09/11 11:43:24;;;;;;;12.38;4.88;;;30.00;97.30;;;;;;5050021;28;20029;-52
2023/09/11 11:45:50;;;;;;;9.32;4.55;;;29.90;97.70;;;;;;5050255;28;20025;-53
2023/09/11 11:48:16;;;;;;;7.90;5.10;;;30.00;97.50;;;;;;5032131;28;20040;-55
2023/09/11 11:50:42;;;;;;;9.77;4.40;;;29.90;97.50;;;;;;5048802;28;20361;-56
2023/09/11 11:53:14;;;;;;;12.38;5.07;;;29.90;98.10;;;;;;5034103;28;20470;-53
2023/09/11 11:55:40;;;;;;;13.07;5.72;;;30.00;98.50;;;;;;5026503;28;20027;-55
2023/09/11 11:58:09;;;;;;;11.77;5.10;;;30.10;97.90;;;;;;5029992;28;20029;-55
2023/09/11 12:00:35;;;;;;;10.95;5.63;;;30.00;97.90;;;;;;5028813;28;20033;-55
2023/09/11 12:03:07;;;;;;;8.23;5.05;;;30.10;98.20;;;;;;5029433;28;20030;-57
2023/09/11 12:05:36;;;;;;;8.70;5.32;;;30.10;97.70;;;;;;5031404;28;20029;-53
2023/09/11 12:08:02;;;;;;;9.75;5.32;;;29.90;97.50;;;;;;5033847;28;20033;-55
2023/09/11 12:10:29;;;;;;;8.52;4.90;;;29.90;98.20;;;;;;5033694;28;20037;-56
2023/09/11 12:12:55;;;;;;;11.48;5.05;;;30.10;97.90;;;;;;5034197;28;20482;-55
2023/09/11 12:15:21;;;;;;;10.55;5.72;;;30.20;97.70;;;;;;5034091;28;20060;-55
2023/09/11 12:17:48;;;;;;;9.50;4.68;;;30.20;97.10;;;;;;5033775;28;20033;-55
2023/09/11 12:20:19;;;;;;;7.40;4.68;;;30.20;97.60;;;;;;5033794;28;20045;-54
2023/09/11 12:22:47;;;;;;;10.40;4.97;;;30.20;97.00;;;;;;5013966;28;20034;-53
2023/09/11 12:25:13;;;;;;;10.05;4.78;;;30.30;97.00;;;;;;5014142;28;20034;-53
2023/09/11 12:27:39;;;;;;;9.30;4.72;;;30.40;96.30;;;;;;5013882;28;20030;-53
2023/09/11 12:30:06;;;;;;;7.53;4.55;;;30.50;95.90;;;;;;5014002;28;20026;-55
2023/09/11 12:32:33;;;;;;;8.48;6.05;;;30.50;95.10;;;;;;5014654;28;20036;-55
2023/09/11 12:35:03;;;;;;;9.35;4.63;;;30.50;95.70;;;;;;5014170;28;20032;-57
2023/09/11 12:37:29;;;;;;;7.97;4.57;;;30.40;95.60;;;;;;5014120;28;20042;-57
2023/09/11 12:39:56;;;;;;;9.90;6.00;;;30.40;96.10;;;;;;4996439;28;20502;-57